Terminal Aerodrome Forecast
Issued by NWS

Home | Current Version | Previous Version | Text Only | Print | Product List | Glossary On
Versions: 1 2 3 4 5 6 7 8 9 10 11 12 13
000
FTUS45 KLKN 061737
TAFWMC
TAF
KWMC 061737Z 0618/0718 VRB06KT P6SM VCSH BKN090
     FM062000 26008G18KT P6SM -SHSN OVC050
      TEMPO 0621/0701 5SM -SN SCT025 OVC035
     FM070100 33008KT P6SM -SHSN OVC030
     FM070600 36005KT P6SM FEW030 SCT200=

USA.gov is the U.S. government's official web portal to all federal, state and local government web resources and services.